Time;durP1;ratioP1;P1;durP2;ratioP2;P2;SDS_P1;SDS_P2;PMS_P1;PMS_P2;Temp;Humidity;BMP_temperature;BMP_pressure;BME280_temperature;BME280_humidity;BME280_pressure;Samples;Min_cycle;Max_cycle;Signal;HPM_P1;HPM_P2
2021/08/17 00:01:54;;;;;;;26.80;6.40;;;;;;;;;;5070666;28;20025;-86
2021/08/17 00:04:22;;;;;;;18.95;6.53;;;;;;;;;;5051431;28;20025;-86
2021/08/17 00:06:47;;;;;;;25.48;6.88;;;;;;;;;;5070289;28;20481;-87
2021/08/17 00:09:13;;;;;;;16.63;6.10;;;;;;;;;;5052202;28;20031;-87
2021/08/17 00:11:39;;;;;;;21.05;6.90;;;;;;;;;;5051908;28;20032;-86
2021/08/17 00:14:04;;;;;;;22.67;7.22;;;;;;;;;;5069909;28;20036;-87
2021/08/17 00:16:37;;;;;;;19.40;7.95;;;;;;;;;;5052092;28;20420;-88
2021/08/17 00:19:02;;;;;;;28.95;8.65;;;;;;;;;;5069684;28;20858;-87
2021/08/17 00:21:27;;;;;;;23.17;8.20;;;;;;;;;;5070669;28;20198;-86
2021/08/17 00:23:57;;;;;;;33.72;9.45;;;;;;;;;;5069721;28;20024;-87
2021/08/17 00:26:22;;;;;;;28.52;9.38;;;;;;;;;;5052243;28;20016;-88
2021/08/17 00:28:48;;;;;;;31.75;8.23;;;;;;;;;;5052019;28;20120;-88
2021/08/17 00:31:16;;;;;;;35.55;12.45;;;;;;;;;;5070000;28;20345;-90
2021/08/17 00:33:41;;;;;;;43.63;12.90;;;;;;;;;;5050741;28;20020;-86
2021/08/17 00:36:07;;;;;;;42.83;10.85;;;;;;;;;;5051943;28;20031;-87
2021/08/17 00:38:34;;;;;;;43.60;13.50;;;;;;;;;;5069469;28;20055;-86
2021/08/17 00:40:59;;;;;;;39.58;12.25;;;;;;;;;;5068406;28;20033;-86
2021/08/17 00:43:24;;;;;;;49.40;14.23;;;;;;;;;;5068568;28;20509;-86
2021/08/17 00:45:50;;;;;;;45.00;15.55;;;;;;;;;;5069735;28;20020;-86
2021/08/17 00:48:20;;;;;;;53.20;15.25;;;;;;;;;;5051866;28;20420;-86
2021/08/17 00:57:51;;;;;;;45.30;15.45;;;;;;;;;;4994507;28;20110;-87
2021/08/17 01:00:17;;;;;;;57.72;16.45;;;;;;;;;;5029703;28;20036;-87
2021/08/17 01:02:45;;;;;;;48.03;15.65;;;;;;;;;;5050181;28;20035;-86
2021/08/17 01:05:11;;;;;;;52.83;17.40;;;;;;;;;;5052398;28;20016;-86
2021/08/17 01:07:45;;;;;;;58.67;16.88;;;;;;;;;;5063479;28;20031;-87
2021/08/17 01:10:11;;;;;;;60.22;18.90;;;;;;;;;;5052420;28;20021;-87
2021/08/17 01:12:37;;;;;;;50.00;17.23;;;;;;;;;;5070491;28;20017;-85
2021/08/17 01:15:03;;;;;;;55.60;18.40;;;;;;;;;;5053606;28;20021;-86
2021/08/17 01:17:37;;;;;;;52.08;17.25;;;;;;;;;;5070922;28;20024;-89
2021/08/17 01:20:03;;;;;;;53.92;19.30;;;;;;;;;;5070780;28;20047;-85
2021/08/17 01:22:28;;;;;;;62.95;19.80;;;;;;;;;;5068921;28;20410;-87
2021/08/17 01:25:10;;;;;;;62.78;22.25;;;;;;;;;;5068909;28;20489;-87
2021/08/17 01:27:39;;;;;;;66.05;20.45;;;;;;;;;;5068642;28;20462;-87
2021/08/17 01:30:05;;;;;;;67.22;21.50;;;;;;;;;;5069690;28;20421;-87
2021/08/17 01:32:30;;;;;;;68.82;22.88;;;;;;;;;;5068692;28;20024;-86
2021/08/17 01:34:59;;;;;;;68.78;22.35;;;;;;;;;;5068948;28;20056;-87
2021/08/17 01:37:24;;;;;;;63.95;22.10;;;;;;;;;;5051218;28;20052;-86
2021/08/17 01:40:03;;;;;;;77.47;23.95;;;;;;;;;;5048090;28;20052;-86
2021/08/17 01:42:30;;;;;;;74.43;25.02;;;;;;;;;;5038930;28;20024;-87
2021/08/17 01:44:55;;;;;;;65.85;23.08;;;;;;;;;;5069191;28;20098;-86
2021/08/17 01:47:25;;;;;;;69.47;22.75;;;;;;;;;;5050953;28;20017;-88
2021/08/17 01:49:50;;;;;;;83.05;26.30;;;;;;;;;;5068474;28;20516;-89
2021/08/17 01:52:15;;;;;;;78.72;26.15;;;;;;;;;;5067237;28;20023;-87
2021/08/17 01:54:41;;;;;;;83.95;25.85;;;;;;;;;;5049846;28;20032;-87
2021/08/17 01:57:06;;;;;;;79.72;26.00;;;;;;;;;;5051875;28;20024;-85
2021/08/17 01:59:34;;;;;;;75.13;25.50;;;;;;;;;;5068044;28;20085;-91
2021/08/17 02:02:38;;;;;;;94.97;29.30;;;;;;;;;;5044059;28;20025;-86
2021/08/17 02:05:07;;;;;;;83.25;27.00;;;;;;;;;;4968023;28;20050;-86
2021/08/17 02:07:47;;;;;;;;;;;;;;;;;;;;;
2021/08/17 02:11:16;;;;;;;79.70;28.02;;;;;;;;;;4981367;28;20026;-85
2021/08/17 02:13:35;;;;;;;84.57;26.65;;;;;;;;;;4974544;28;20026;-86
2021/08/17 02:16:07;;;;;;;;;;;;;;;;;;4989592;28;20509;-86
2021/08/17 02:18:40;;;;;;;90.75;29.02;;;;;;;;;;5045982;28;19908;-87
2021/08/17 02:21:06;;;;;;;84.22;27.52;;;;;;;;;;5071162;28;20234;-87
2021/08/17 02:23:42;;;;;;;;;;;;;;;;;;;;;
2021/08/17 02:26:07;;;;;;;80.43;26.50;;;;;;;;;;5072310;28;20023;-87
2021/08/17 02:28:52;;;;;;;72.90;26.30;;;;;;;;;;5071398;28;20107;-86
2021/08/17 02:31:30;;;;;;;83.03;27.33;;;;;;;;;;5061450;28;20044;-87
2021/08/17 02:34:07;;;;;;;76.18;25.92;;;;;;;;;;5052200;28;20144;-87
2021/08/17 02:36:48;;;;;;;79.40;27.92;;;;;;;;;;5051080;28;20561;-88
2021/08/17 02:39:22;;;;;;;;;;;;;;;;;;5055380;28;20029;-86
2021/08/17 02:42:01;;;;;;;;;;;;;;;;;;;;;
2021/08/17 02:44:35;;;;;;;87.07;27.27;;;;;;;;;;5068336;28;20037;-88
2021/08/17 02:47:33;;;;;;;;;;;;;;;;;;;;;
2021/08/17 02:50:25;;;;;;;80.70;28.85;;;;;;;;;;5077336;28;20100;-87
2021/08/17 02:52:51;;;;;;;85.10;28.15;;;;;;;;;;5063405;28;20064;-87
2021/08/17 02:55:16;;;;;;;82.97;27.73;;;;;;;;;;5057958;28;20455;-85
2021/08/17 02:57:55;;;;;;;75.78;27.65;;;;;;;;;;5058663;28;20036;-88
2021/08/17 03:00:47;;;;;;;;;;;;;;;;;;;;;
2021/08/17 03:03:38;;;;;;;77.78;27.45;;;;;;;;;;5066348;28;20032;-88
2021/08/17 03:06:06;;;;;;;81.10;27.70;;;;;;;;;;5070967;28;20046;-88
2021/08/17 03:08:32;;;;;;;77.05;26.67;;;;;;;;;;5049230;28;20025;-86
2021/08/17 03:11:00;;;;;;;78.63;26.30;;;;;;;;;;5061372;28;20020;-86
2021/08/17 03:13:26;;;;;;;76.82;26.98;;;;;;;;;;5059121;28;20039;-86
2021/08/17 03:15:51;;;;;;;86.25;25.92;;;;;;;;;;5085171;28;20359;-86
2021/08/17 03:18:16;;;;;;;83.95;28.27;;;;;;;;;;5062445;28;20107;-87
2021/08/17 03:20:42;;;;;;;81.50;29.20;;;;;;;;;;5064908;28;20024;-86
2021/08/17 03:23:08;;;;;;;73.93;25.05;;;;;;;;;;5075866;28;20023;-86
2021/08/17 03:25:33;;;;;;;83.00;26.30;;;;;;;;;;5077332;28;20020;-86
2021/08/17 03:27:59;;;;;;;81.45;26.75;;;;;;;;;;5068696;28;20099;-86
2021/08/17 03:30:25;;;;;;;73.25;26.85;;;;;;;;;;5069995;28;20099;-87
2021/08/17 03:32:50;;;;;;;90.55;26.77;;;;;;;;;;5083283;28;20017;-86
2021/08/17 03:35:22;;;;;;;82.40;25.98;;;;;;;;;;5069772;28;20066;-87
2021/08/17 03:37:50;;;;;;;89.40;29.38;;;;;;;;;;5058683;28;20024;-87
2021/08/17 03:40:16;;;;;;;72.75;27.38;;;;;;;;;;5064131;28;20027;-85
2021/08/17 03:42:42;;;;;;;74.88;25.00;;;;;;;;;;5058433;28;20023;-86
2021/08/17 03:45:11;;;;;;;78.60;26.55;;;;;;;;;;5077665;28;20024;-87
2021/08/17 03:47:37;;;;;;;76.55;25.60;;;;;;;;;;5071845;28;20017;-86
2021/08/17 03:50:07;;;;;;;80.10;25.42;;;;;;;;;;5053941;28;20017;-86
2021/08/17 03:52:33;;;;;;;81.97;28.00;;;;;;;;;;5072271;28;20492;-86
2021/08/17 03:55:02;;;;;;;82.10;27.50;;;;;;;;;;5047867;28;20036;-88
2021/08/17 03:57:27;;;;;;;71.55;24.02;;;;;;;;;;5060678;28;20498;-87
2021/08/17 03:59:52;;;;;;;79.65;25.55;;;;;;;;;;5067572;28;20043;-86
2021/08/17 04:02:17;;;;;;;75.97;26.63;;;;;;;;;;5058759;28;20027;-87
2021/08/17 04:04:43;;;;;;;78.63;24.83;;;;;;;;;;5072884;28;20024;-87
2021/08/17 04:07:08;;;;;;;75.88;25.80;;;;;;;;;;5073059;28;20019;-87
2021/08/17 04:09:33;;;;;;;74.43;26.27;;;;;;;;;;5070045;28;20059;-87
2021/08/17 04:11:58;;;;;;;89.13;26.23;;;;;;;;;;5077115;28;20012;-86
2021/08/17 04:14:24;;;;;;;79.82;26.98;;;;;;;;;;5052251;28;20032;-87
2021/08/17 04:16:49;;;;;;;82.07;28.00;;;;;;;;;;5071536;28;20024;-87
2021/08/17 04:19:14;;;;;;;75.70;25.80;;;;;;;;;;5069391;28;20752;-87
2021/08/17 04:21:39;;;;;;;84.88;27.40;;;;;;;;;;5053745;28;20027;-87
2021/08/17 04:24:07;;;;;;;83.35;27.20;;;;;;;;;;5089612;28;20048;-88
2021/08/17 04:26:33;;;;;;;79.82;27.88;;;;;;;;;;5071384;28;20024;-87
2021/08/17 04:28:58;;;;;;;85.95;28.58;;;;;;;;;;5071651;28;22103;-87
2021/08/17 04:31:23;;;;;;;73.65;25.10;;;;;;;;;;5072841;28;20017;-86
2021/08/17 04:33:48;;;;;;;82.72;27.48;;;;;;;;;;5051152;28;20021;-87
2021/08/17 04:36:14;;;;;;;87.72;26.08;;;;;;;;;;5052295;28;20090;-87
2021/08/17 04:38:39;;;;;;;73.07;25.45;;;;;;;;;;5051755;28;20017;-87
2021/08/17 04:41:05;;;;;;;70.47;24.77;;;;;;;;;;5069307;28;20104;-87
2021/08/17 04:43:30;;;;;;;72.90;25.15;;;;;;;;;;5070532;28;20016;-86
2021/08/17 04:45:56;;;;;;;69.25;24.25;;;;;;;;;;5066060;28;20024;-87
2021/08/17 04:48:21;;;;;;;81.32;25.58;;;;;;;;;;5051967;28;20039;-87
2021/08/17 04:50:47;;;;;;;73.53;24.50;;;;;;;;;;5068453;28;20025;-86
2021/08/17 04:53:12;;;;;;;68.20;24.95;;;;;;;;;;5050710;28;20034;-87
2021/08/17 04:55:37;;;;;;;76.60;25.77;;;;;;;;;;5061622;28;20072;-86
2021/08/17 04:58:04;;;;;;;75.32;23.88;;;;;;;;;;5073292;28;20107;-86
2021/08/17 05:00:29;;;;;;;76.45;23.30;;;;;;;;;;5069563;28;20089;-87
2021/08/17 05:02:55;;;;;;;70.78;24.70;;;;;;;;;;5069843;28;20094;-87
2021/08/17 05:05:20;;;;;;;73.38;22.08;;;;;;;;;;5052082;28;20073;-86
2021/08/17 05:07:46;;;;;;;89.75;26.30;;;;;;;;;;5052200;28;20028;-87
2021/08/17 05:10:15;;;;;;;66.68;25.20;;;;;;;;;;5047571;28;20021;-87
2021/08/17 05:12:41;;;;;;;75.97;23.88;;;;;;;;;;5064528;28;20024;-86
2021/08/17 05:15:07;;;;;;;71.15;24.80;;;;;;;;;;5070165;28;20504;-87
2021/08/17 05:17:32;;;;;;;64.50;22.95;;;;;;;;;;5069888;28;20027;-86
2021/08/17 05:19:58;;;;;;;63.78;23.25;;;;;;;;;;5068828;28;20028;-88
2021/08/17 05:22:23;;;;;;;75.53;25.77;;;;;;;;;;5071055;28;20046;-85
2021/08/17 05:24:48;;;;;;;66.75;24.20;;;;;;;;;;5051151;28;20052;-87
2021/08/17 05:27:13;;;;;;;69.43;23.55;;;;;;;;;;5069046;28;20052;-87
2021/08/17 05:29:39;;;;;;;73.93;24.83;;;;;;;;;;5070181;28;20020;-87
2021/08/17 05:32:05;;;;;;;65.97;22.08;;;;;;;;;;5050744;28;20024;-87
2021/08/17 05:34:30;;;;;;;78.03;23.63;;;;;;;;;;5069281;28;20017;-87
2021/08/17 05:36:56;;;;;;;68.15;23.30;;;;;;;;;;5048757;28;20165;-87
2021/08/17 05:39:24;;;;;;;81.88;27.45;;;;;;;;;;5067693;28;20394;-88
2021/08/17 05:41:49;;;;;;;73.03;25.77;;;;;;;;;;5049910;28;20529;-86
2021/08/17 05:44:15;;;;;;;77.22;25.75;;;;;;;;;;5069156;28;20028;-85
2021/08/17 05:46:40;;;;;;;61.10;23.13;;;;;;;;;;5046704;28;20405;-87
2021/08/17 05:49:14;;;;;;;70.28;23.05;;;;;;;;;;5048652;28;20009;-87
2021/08/17 05:51:43;;;;;;;60.90;23.70;;;;;;;;;;5043499;28;20500;-87
2021/08/17 05:54:55;;;;;;;68.25;24.60;;;;;;;;;;5047276;28;20028;-86
2021/08/17 05:57:20;;;;;;;67.15;22.67;;;;;;;;;;5128630;22;20047;-70
2021/08/17 05:59:45;;;;;;;70.05;23.05;;;;;;;;;;5092157;28;20028;-70
2021/08/17 06:02:10;;;;;;;73.63;22.40;;;;;;;;;;5091019;28;20184;-70
2021/08/17 06:04:36;;;;;;;57.97;21.30;;;;;;;;;;5091660;28;20696;-71
2021/08/17 06:07:01;;;;;;;60.67;21.30;;;;;;;;;;5088782;28;20024;-70
2021/08/17 06:09:26;;;;;;;72.32;23.67;;;;;;;;;;5090997;28;20481;-70
2021/08/17 06:11:54;;;;;;;77.20;24.58;;;;;;;;;;5083210;28;20023;-70
2021/08/17 06:14:19;;;;;;;67.75;21.83;;;;;;;;;;5091571;28;20016;-70
2021/08/17 06:16:44;;;;;;;59.17;21.30;;;;;;;;;;5090646;28;20111;-70
2021/08/17 06:19:10;;;;;;;77.25;22.50;;;;;;;;;;5091324;28;20209;-70
2021/08/17 06:21:36;;;;;;;60.88;20.88;;;;;;;;;;5091620;28;20385;-70
2021/08/17 06:24:02;;;;;;;64.70;22.08;;;;;;;;;;5092170;28;20031;-70
2021/08/17 06:26:27;;;;;;;66.10;21.52;;;;;;;;;;5091991;28;20117;-70
2021/08/17 06:28:52;;;;;;;68.88;22.60;;;;;;;;;;5092672;28;20481;-70
2021/08/17 06:31:22;;;;;;;55.77;20.90;;;;;;;;;;5093131;28;20424;-70
2021/08/17 06:33:47;;;;;;;62.13;20.95;;;;;;;;;;5092664;28;20277;-70
2021/08/17 06:36:12;;;;;;;60.53;23.75;;;;;;;;;;5093122;28;20020;-71
2021/08/17 06:38:38;;;;;;;61.63;22.60;;;;;;;;;;5092419;28;20012;-70
2021/08/17 06:41:03;;;;;;;67.60;21.67;;;;;;;;;;5093402;28;20016;-70
2021/08/17 06:43:29;;;;;;;64.37;22.33;;;;;;;;;;5092785;28;20098;-70
2021/08/17 06:45:54;;;;;;;62.92;21.60;;;;;;;;;;5092053;28;20278;-70
2021/08/17 06:48:19;;;;;;;74.82;22.80;;;;;;;;;;5093532;28;20020;-70
2021/08/17 06:50:45;;;;;;;61.90;22.63;;;;;;;;;;5092328;28;20052;-70
2021/08/17 06:53:10;;;;;;;66.47;23.20;;;;;;;;;;5094985;28;20307;-70
2021/08/17 06:55:35;;;;;;;75.30;26.25;;;;;;;;;;5095831;28;20031;-70
2021/08/17 06:58:00;;;;;;;62.92;24.73;;;;;;;;;;5095089;28;20104;-70
2021/08/17 07:00:26;;;;;;;66.97;23.05;;;;;;;;;;5094413;28;20031;-70
2021/08/17 07:02:51;;;;;;;66.57;22.67;;;;;;;;;;5112935;28;20378;-70
2021/08/17 07:05:16;;;;;;;67.77;23.77;;;;;;;;;;5091533;28;20020;-70
2021/08/17 07:07:41;;;;;;;62.28;22.67;;;;;;;;;;5092617;28;20344;-70
2021/08/17 07:10:07;;;;;;;68.97;21.73;;;;;;;;;;5092260;28;20034;-71
2021/08/17 07:12:32;;;;;;;68.93;24.55;;;;;;;;;;5092269;28;20734;-70
2021/08/17 07:14:57;;;;;;;73.33;25.70;;;;;;;;;;5096126;28;20097;-70
2021/08/17 07:17:22;;;;;;;67.13;24.83;;;;;;;;;;5092146;28;20349;-70
2021/08/17 07:19:47;;;;;;;68.80;23.33;;;;;;;;;;5092903;28;20100;-70
2021/08/17 07:22:13;;;;;;;69.70;25.85;;;;;;;;;;5091858;28;20357;-70
2021/08/17 07:24:38;;;;;;;80.70;22.60;;;;;;;;;;5092438;28;20119;-70
2021/08/17 07:27:03;;;;;;;62.10;22.60;;;;;;;;;;5092857;28;20273;-70
2021/08/17 07:29:28;;;;;;;60.53;23.15;;;;;;;;;;5092079;28;20564;-70
2021/08/17 07:31:53;;;;;;;62.50;22.77;;;;;;;;;;5094716;28;20050;-70
2021/08/17 07:34:19;;;;;;;64.07;21.00;;;;;;;;;;5091923;28;20046;-70
2021/08/17 07:36:44;;;;;;;59.15;24.90;;;;;;;;;;5092032;28;20270;-70
2021/08/17 07:39:10;;;;;;;70.43;25.45;;;;;;;;;;5092226;28;20024;-70
2021/08/17 07:41:36;;;;;;;63.45;23.88;;;;;;;;;;5090400;28;20434;-70
2021/08/17 07:44:01;;;;;;;71.53;24.00;;;;;;;;;;5111447;28;20078;-70
2021/08/17 07:46:27;;;;;;;62.30;23.42;;;;;;;;;;5104430;28;20402;-70
2021/08/17 07:48:52;;;;;;;52.95;21.17;;;;;;;;;;5093616;28;20391;-71
2021/08/17 07:51:17;;;;;;;51.00;22.00;;;;;;;;;;5092067;28;20020;-70
2021/08/17 07:53:43;;;;;;;68.28;21.30;;;;;;;;;;5091932;28;20474;-70
2021/08/17 07:56:08;;;;;;;60.05;23.02;;;;;;;;;;5091642;28;20513;-70
2021/08/17 07:58:33;;;;;;;56.20;22.50;;;;;;;;;;5090944;28;20536;-70
2021/08/17 08:00:58;;;;;;;64.97;22.67;;;;;;;;;;5091452;28;20481;-71
2021/08/17 08:03:23;;;;;;;57.67;21.30;;;;;;;;;;5091114;28;20270;-70
2021/08/17 08:05:49;;;;;;;53.42;16.98;;;;;;;;;;5108809;28;20277;-70
2021/08/17 08:08:14;;;;;;;58.00;19.58;;;;;;;;;;5101692;28;20465;-70
2021/08/17 08:10:39;;;;;;;53.97;21.67;;;;;;;;;;5095195;28;20419;-70
2021/08/17 08:13:04;;;;;;;60.28;20.48;;;;;;;;;;5092604;28;20103;-70
2021/08/17 08:15:30;;;;;;;56.05;20.75;;;;;;;;;;5072801;28;20083;-70
2021/08/17 08:17:55;;;;;;;51.08;18.10;;;;;;;;;;5091338;28;20069;-70
2021/08/17 08:20:20;;;;;;;46.45;18.38;;;;;;;;;;5091942;28;20513;-70
2021/08/17 08:22:46;;;;;;;57.83;20.67;;;;;;;;;;5093107;28;20446;-70
2021/08/17 08:25:11;;;;;;;47.60;19.00;;;;;;;;;;5091131;28;20237;-70
2021/08/17 08:27:37;;;;;;;47.28;19.55;;;;;;;;;;5091273;28;20047;-70
2021/08/17 08:30:03;;;;;;;47.22;20.02;;;;;;;;;;5090738;28;20016;-70
2021/08/17 08:32:29;;;;;;;47.33;19.65;;;;;;;;;;5090872;28;20020;-70
2021/08/17 08:34:54;;;;;;;48.28;19.80;;;;;;;;;;5091293;28;20028;-70
2021/08/17 08:37:19;;;;;;;45.70;19.23;;;;;;;;;;5091027;28;20020;-70
2021/08/17 08:39:44;;;;;;;49.97;17.93;;;;;;;;;;5090975;28;20027;-70
2021/08/17 08:42:10;;;;;;;47.90;18.85;;;;;;;;;;5090991;28;20262;-70
2021/08/17 08:44:35;;;;;;;51.75;19.50;;;;;;;;;;5093470;28;20024;-70
2021/08/17 08:47:00;;;;;;;51.13;18.35;;;;;;;;;;5102740;28;20012;-71
2021/08/17 08:49:26;;;;;;;46.72;16.98;;;;;;;;;;5091183;28;20416;-70
2021/08/17 08:51:51;;;;;;;47.10;20.00;;;;;;;;;;5090428;28;20466;-70
2021/08/17 08:54:17;;;;;;;42.83;17.15;;;;;;;;;;5090743;28;20019;-70
2021/08/17 08:56:42;;;;;;;45.55;17.98;;;;;;;;;;5108831;28;20397;-70
2021/08/17 08:59:07;;;;;;;37.63;14.83;;;;;;;;;;5090459;28;20382;-70
2021/08/17 09:01:32;;;;;;;40.67;15.57;;;;;;;;;;5090497;28;20262;-70
2021/08/17 09:03:57;;;;;;;40.20;16.10;;;;;;;;;;5090815;28;20016;-70
2021/08/17 09:06:24;;;;;;;38.70;16.45;;;;;;;;;;5090518;28;20266;-70
2021/08/17 09:09:06;;;;;;;40.15;15.68;;;;;;;;;;5090168;28;20044;-70
2021/08/17 09:11:31;;;;;;;37.22;16.13;;;;;;;;;;5090834;28;20008;-72
2021/08/17 09:14:14;;;;;;;29.70;9.93;;;;;;;;;;5090432;28;20020;-71
2021/08/17 09:16:39;;;;;;;40.08;14.60;;;;;;;;;;5090091;28;20345;-71
2021/08/17 09:19:20;;;;;;;36.93;15.23;;;;;;;;;;5090779;28;20095;-71
2021/08/17 09:21:46;;;;;;;42.40;16.30;;;;;;;;;;5075706;28;20376;-71
2021/08/17 09:24:12;;;;;;;41.10;15.20;;;;;;;;;;5090136;28;20027;-71
2021/08/17 09:26:43;;;;;;;36.35;15.45;;;;;;;;;;5090549;28;20027;-72
2021/08/17 09:29:08;;;;;;;;;;;;;;;;;;5089612;28;20023;-70
2021/08/17 09:31:35;;;;;;;43.28;15.88;;;;;;;;;;5089724;28;19923;-70
2021/08/17 09:34:00;;;;;;;37.85;14.52;;;;;;;;;;5089849;28;20067;-70
2021/08/17 09:36:34;;;;;;;37.83;16.35;;;;;;;;;;5089555;28;20051;-70
2021/08/17 09:38:59;;;;;;;38.42;15.40;;;;;;;;;;5089832;28;20031;-70
2021/08/17 09:41:24;;;;;;;36.13;15.43;;;;;;;;;;5090436;28;20020;-70
2021/08/17 09:43:57;;;;;;;37.70;14.57;;;;;;;;;;5089440;28;20258;-70
2021/08/17 09:46:33;;;;;;;42.22;16.25;;;;;;;;;;5089343;28;20297;-70
2021/08/17 09:49:15;;;;;;;39.67;15.25;;;;;;;;;;5089627;28;20362;-70
2021/08/17 09:51:40;;;;;;;35.13;14.10;;;;;;;;;;5090301;28;20041;-70
2021/08/17 09:54:13;;;;;;;45.05;16.63;;;;;;;;;;5090154;28;20016;-70
2021/08/17 09:56:38;;;;;;;36.42;15.38;;;;;;;;;;5089541;28;20581;-70
2021/08/17 09:59:06;;;;;;;43.00;15.93;;;;;;;;;;5088922;28;20020;-70
2021/08/17 10:01:32;;;;;;;34.88;15.07;;;;;;;;;;5089235;28;20053;-71
2021/08/17 10:03:58;;;;;;;37.85;16.00;;;;;;;;;;5088755;28;20024;-70
2021/08/17 10:06:23;;;;;;;41.10;15.43;;;;;;;;;;5103304;28;20149;-70
2021/08/17 10:08:50;;;;;;;42.05;16.48;;;;;;;;;;5092643;28;20111;-70
2021/08/17 10:11:17;;;;;;;33.95;14.15;;;;;;;;;;5090193;28;20020;-70
2021/08/17 10:13:42;;;;;;;35.25;15.23;;;;;;;;;;5089298;28;20028;-71
2021/08/17 10:16:07;;;;;;;40.42;15.50;;;;;;;;;;5071862;28;20035;-71
2021/08/17 10:18:34;;;;;;;42.90;16.80;;;;;;;;;;5090284;28;20020;-70
2021/08/17 10:21:02;;;;;;;35.83;14.88;;;;;;;;;;5090509;28;20016;-70
2021/08/17 10:23:27;;;;;;;33.90;15.50;;;;;;;;;;5089881;28;20055;-70
2021/08/17 10:25:54;;;;;;;32.70;15.35;;;;;;;;;;5089696;28;20059;-71
2021/08/17 10:28:39;;;;;;;39.63;16.23;;;;;;;;;;5090228;28;20027;-70
2021/08/17 10:31:13;;;;;;;31.27;14.93;;;;;;;;;;5099866;28;20022;-71
2021/08/17 10:33:42;;;;;;;41.33;14.68;;;;;;;;;;5090711;28;20097;-71
2021/08/17 10:36:08;;;;;;;34.00;14.70;;;;;;;;;;5089573;28;20031;-71
2021/08/17 10:38:35;;;;;;;37.28;14.73;;;;;;;;;;5089210;28;20013;-71
2021/08/17 10:41:03;;;;;;;38.80;14.85;;;;;;;;;;5092333;28;20063;-71
2021/08/17 10:43:31;;;;;;;30.52;14.20;;;;;;;;;;5074899;28;20496;-71
2021/08/17 10:46:01;;;;;;;29.27;14.98;;;;;;;;;;5094026;28;20027;-71
2021/08/17 10:48:50;;;;;;;42.92;15.45;;;;;;;;;;5092099;28;20386;-71
2021/08/17 10:51:19;;;;;;;35.17;13.77;;;;;;;;;;5093813;28;20109;-71
2021/08/17 10:53:48;;;;;;;29.80;14.18;;;;;;;;;;5092840;28;20259;-71
2021/08/17 10:56:17;;;;;;;30.63;14.10;;;;;;;;;;5093450;28;20099;-71
2021/08/17 10:58:44;;;;;;;32.83;13.97;;;;;;;;;;5092792;28;20042;-71
2021/08/17 11:01:09;;;;;;;31.58;14.43;;;;;;;;;;5093309;28;20020;-71
2021/08/17 11:03:36;;;;;;;40.00;15.57;;;;;;;;;;5092332;28;20020;-72
2021/08/17 11:06:02;;;;;;;40.33;16.10;;;;;;;;;;5093153;28;20028;-71
2021/08/17 11:08:40;;;;;;;35.97;14.65;;;;;;;;;;5092924;28;20019;-71
2021/08/17 11:11:16;;;;;;;34.33;14.43;;;;;;;;;;5084838;28;20077;-71
2021/08/17 11:13:58;;;;;;;29.23;12.88;;;;;;;;;;5092678;28;20026;-71
2021/08/17 11:16:23;;;;;;;35.55;14.10;;;;;;;;;;5077715;28;20016;-71
2021/08/17 11:18:48;;;;;;;29.35;14.05;;;;;;;;;;5093222;28;20020;-71
2021/08/17 11:21:27;;;;;;;29.40;14.25;;;;;;;;;;5092731;28;20416;-71
2021/08/17 11:24:09;;;;;;;38.72;14.52;;;;;;;;;;5092127;28;20112;-71
2021/08/17 11:26:35;;;;;;;28.30;12.63;;;;;;;;;;5081708;28;20023;-71
2021/08/17 11:29:00;;;;;;;30.40;12.70;;;;;;;;;;5092448;28;20020;-71
2021/08/17 11:31:25;;;;;;;29.85;13.68;;;;;;;;;;5092612;28;20034;-71
2021/08/17 11:34:10;;;;;;;30.70;12.88;;;;;;;;;;5091524;28;20016;-72
2021/08/17 11:36:35;;;;;;;34.53;13.07;;;;;;;;;;5092250;28;20047;-72
2021/08/17 11:39:17;;;;;;;30.40;11.90;;;;;;;;;;5091725;28;20058;-71
2021/08/17 11:41:42;;;;;;;27.80;12.45;;;;;;;;;;5091950;28;20321;-71
2021/08/17 11:44:11;;;;;;;32.10;13.32;;;;;;;;;;5092360;28;20019;-71
2021/08/17 11:46:36;;;;;;;30.73;12.65;;;;;;;;;;5091596;28;20333;-71
2021/08/17 11:49:19;;;;;;;37.93;13.23;;;;;;;;;;5092292;28;20500;-71
2021/08/17 11:51:45;;;;;;;31.10;13.13;;;;;;;;;;5091074;28;20259;-71
2021/08/17 11:54:14;;;;;;;28.60;12.15;;;;;;;;;;5092254;28;20110;-71
2021/08/17 11:56:40;;;;;;;29.53;10.93;;;;;;;;;;5092315;28;20031;-71
2021/08/17 11:59:05;;;;;;;31.83;12.13;;;;;;;;;;5091738;28;20270;-71
2021/08/17 12:01:30;;;;;;;29.73;10.63;;;;;;;;;;5089547;28;20027;-71
2021/08/17 12:04:05;;;;;;;20.37;10.00;;;;;;;;;;5094297;28;20115;-71
2021/08/17 12:06:30;;;;;;;23.40;10.82;;;;;;;;;;5093001;28;20632;-71
2021/08/17 12:09:15;;;;;;;17.17;9.80;;;;;;;;;;5091789;28;20020;-71
2021/08/17 12:11:57;;;;;;;23.85;10.10;;;;;;;;;;5091848;28;20262;-71
2021/08/17 12:14:23;;;;;;;26.42;9.68;;;;;;;;;;5097098;28;20016;-71
2021/08/17 12:16:52;;;;;;;26.20;11.07;;;;;;;;;;5085334;28;20054;-71
2021/08/17 12:19:17;;;;;;;27.33;10.35;;;;;;;;;;5092176;28;20472;-71
2021/08/17 12:21:42;;;;;;;24.30;10.82;;;;;;;;;;5088070;28;20111;-71
2021/08/17 12:24:08;;;;;;;28.83;9.97;;;;;;;;;;5087538;28;20027;-71
2021/08/17 12:26:33;;;;;;;32.05;11.75;;;;;;;;;;5082041;28;20251;-71
2021/08/17 12:29:08;;;;;;;26.43;11.60;;;;;;;;;;5071469;28;20051;-71
2021/08/17 12:31:34;;;;;;;25.38;10.88;;;;;;;;;;5071269;28;20255;-72
2021/08/17 12:34:05;;;;;;;28.95;11.27;;;;;;;;;;5084581;28;20039;-71
2021/08/17 12:36:48;;;;;;;28.17;11.10;;;;;;;;;;5091429;28;20016;-71
2021/08/17 12:39:22;;;;;;;23.20;11.00;;;;;;;;;;5090543;28;20047;-71
2021/08/17 12:41:55;;;;;;;26.98;10.60;;;;;;;;;;5091267;28;20016;-71
2021/08/17 12:44:22;;;;;;;25.65;10.27;;;;;;;;;;5091251;28;20046;-71
2021/08/17 12:47:02;;;;;;;22.17;9.63;;;;;;;;;;5095982;28;20036;-71
2021/08/17 12:49:38;;;;;;;27.95;10.75;;;;;;;;;;5092335;28;20020;-71
2021/08/17 12:52:21;;;;;;;23.70;10.20;;;;;;;;;;5099464;28;20020;-72
2021/08/17 12:54:47;;;;;;;23.05;10.88;;;;;;;;;;5106657;28;20032;-72
2021/08/17 12:57:22;;;;;;;23.10;10.43;;;;;;;;;;5097025;28;20249;-72
2021/08/17 12:59:48;;;;;;;21.77;9.35;;;;;;;;;;5090556;28;20516;-72
2021/08/17 13:02:13;;;;;;;23.77;9.38;;;;;;;;;;5090241;28;20081;-72
2021/08/17 13:04:38;;;;;;;22.08;9.57;;;;;;;;;;5097470;28;20028;-72
2021/08/17 13:07:04;;;;;;;23.58;9.65;;;;;;;;;;5092753;28;20016;-72
2021/08/17 13:09:29;;;;;;;21.63;9.45;;;;;;;;;;5091001;28;20040;-72
2021/08/17 13:11:54;;;;;;;23.87;9.10;;;;;;;;;;5095489;28;20020;-72
2021/08/17 13:14:19;;;;;;;28.83;10.67;;;;;;;;;;5099964;28;20380;-72
2021/08/17 13:16:45;;;;;;;22.85;10.98;;;;;;;;;;5098687;28;20315;-72
2021/08/17 13:19:10;;;;;;;22.97;10.20;;;;;;;;;;5090588;28;20030;-72
2021/08/17 13:21:35;;;;;;;24.57;10.53;;;;;;;;;;5093646;28;20270;-72
2021/08/17 13:24:01;;;;;;;22.23;9.63;;;;;;;;;;5090529;28;20297;-72
2021/08/17 13:26:26;;;;;;;29.00;10.85;;;;;;;;;;5090036;28;20356;-72
2021/08/17 13:28:51;;;;;;;30.17;9.80;;;;;;;;;;5102028;28;20091;-72
2021/08/17 13:31:17;;;;;;;23.55;10.27;;;;;;;;;;5088265;28;20311;-72
2021/08/17 13:33:42;;;;;;;24.23;10.37;;;;;;;;;;5088713;28;20019;-72
2021/08/17 13:36:07;;;;;;;26.43;11.13;;;;;;;;;;5090014;28;20739;-72
2021/08/17 13:38:32;;;;;;;28.08;10.68;;;;;;;;;;5090032;28;20259;-72
2021/08/17 13:40:57;;;;;;;20.47;9.23;;;;;;;;;;5083413;28;20654;-72
2021/08/17 13:43:23;;;;;;;28.90;10.63;;;;;;;;;;5088252;28;20285;-72
2021/08/17 13:45:48;;;;;;;27.95;9.20;;;;;;;;;;5088429;28;20701;-72
2021/08/17 13:48:14;;;;;;;21.47;9.83;;;;;;;;;;5093771;28;20020;-72
2021/08/17 13:50:39;;;;;;;26.95;10.55;;;;;;;;;;5095654;28;20930;-72
2021/08/17 13:53:04;;;;;;;29.67;11.70;;;;;;;;;;5089395;28;20055;-72
2021/08/17 13:55:30;;;;;;;20.08;8.77;;;;;;;;;;5089727;28;20098;-72
2021/08/17 13:57:55;;;;;;;24.43;10.57;;;;;;;;;;5089028;28;20028;-72
2021/08/17 14:00:20;;;;;;;28.77;10.63;;;;;;;;;;5089125;28;20265;-72
2021/08/17 14:02:45;;;;;;;23.80;10.43;;;;;;;;;;5089570;28;20021;-72
2021/08/17 14:05:10;;;;;;;33.93;10.13;;;;;;;;;;5089947;28;20023;-72
2021/08/17 14:07:35;;;;;;;23.00;10.63;;;;;;;;;;5089588;28;20308;-72
2021/08/17 14:10:01;;;;;;;26.33;11.03;;;;;;;;;;5089887;28;20258;-72
2021/08/17 14:12:26;;;;;;;42.75;14.07;;;;;;;;;;5089154;28;20310;-72
2021/08/17 14:14:52;;;;;;;24.65;11.18;;;;;;;;;;5090498;28;20027;-72
2021/08/17 14:17:17;;;;;;;25.50;10.90;;;;;;;;;;5093466;28;20024;-72
2021/08/17 14:19:42;;;;;;;22.60;9.85;;;;;;;;;;5094147;28;20394;-72
2021/08/17 14:22:07;;;;;;;24.98;11.13;;;;;;;;;;5093847;28;20409;-72
2021/08/17 14:24:32;;;;;;;25.45;11.88;;;;;;;;;;5094744;28;20028;-72
2021/08/17 14:26:58;;;;;;;28.08;12.75;;;;;;;;;;5093488;28;20375;-72
2021/08/17 14:29:23;;;;;;;21.00;9.30;;;;;;;;;;5093744;28;20084;-72
2021/08/17 14:31:48;;;;;;;19.87;8.90;;;;;;;;;;5093362;28;20274;-72
2021/08/17 14:34:13;;;;;;;20.67;9.02;;;;;;;;;;5093736;28;20357;-72
2021/08/17 14:36:39;;;;;;;24.97;8.67;;;;;;;;;;5091731;28;20028;-72